Chuuk, Federated States of Micronesia
Current Conditions -  °F | °C
As of 6:50 AM on Friday 24 Oct 2014 (Local Time) from PTKK Reporting Station
Overcast Overcast  
Wind Chill: 83°   Ceiling: 28000
Heat Index: 92°   Visibility: 15mi
Dew Point: 78°   Wind: 7mph
Humidity: 84%   Direction: NA
Pressure: 29.86"   Gusts: NA
Location:  7.47°N, 151.85°E
Report Text: PTKK 232050Z VRB06KT 15SM FEW014 SCT120 OVC280 28/25 A2986 RMK SLP113 8/171 T02830253 52022
Loading
Personal Weather Stations






























Interactive Weather Map
Tropical Storm Tracking
New forecast layout! Learn more

10-Day Weather Forecast

Advertisements
Track Severe Weather on mobile